Time;durP1;ratioP1;P1;durP2;ratioP2;P2;SDS_P1;SDS_P2;PMS_P1;PMS_P2;Temp;Humidity;BMP_temperature;BMP_pressure;BME280_temperature;BME280_humidity;BME280_pressure;Samples;Min_cycle;Max_cycle;Signal;HPM_P1;HPM_P2
2022/06/12 00:00:50;;;;;;;11.70;8.65;;;486.90;2380.80;;;;;;5070074;28;20090;-57
2022/06/12 00:03:18;;;;;;;11.63;7.75;;;486.90;2380.80;;;;;;5069844;28;20062;-56
2022/06/12 00:05:47;;;;;;;10.57;7.65;;;486.80;2380.80;;;;;;5069846;28;20473;-57
2022/06/12 00:08:15;;;;;;;10.20;7.70;;;486.80;2380.80;;;;;;5069634;28;20100;-57
2022/06/12 00:10:45;;;;;;;8.93;7.70;;;486.70;2380.80;;;;;;5069560;28;20029;-57
2022/06/12 00:13:14;;;;;;;10.98;7.32;;;486.70;2380.80;;;;;;5069708;28;20040;-58
2022/06/12 00:15:40;;;;;;;8.88;7.68;;;486.50;2380.80;;;;;;5069687;28;20032;-57
2022/06/12 00:18:06;;;;;;;12.23;8.23;;;486.50;2380.80;;;;;;5070025;28;20428;-57
2022/06/12 00:20:32;;;;;;;10.23;7.80;;;461.70;2380.80;;;;;;5069705;28;20147;-57
2022/06/12 00:22:58;;;;;;;10.82;6.75;;;461.70;2380.80;;;;;;5073296;28;20040;-58
2022/06/12 00:25:28;;;;;;;9.88;7.93;;;461.70;2380.80;;;;;;5073513;28;20495;-57
2022/06/12 00:27:54;;;;;;;11.85;7.13;;;461.70;2380.80;;;;;;5073381;28;20428;-57
2022/06/12 00:30:23;;;;;;;10.60;7.70;;;461.70;2380.80;;;;;;5073423;28;20179;-57
2022/06/12 00:32:52;;;;;;;9.00;6.72;;;461.70;2304.00;;;;;;5073543;28;20070;-57
2022/06/12 00:35:29;;;;;;;9.13;6.18;;;461.70;2380.80;;;;;;5073578;28;20086;-57
2022/06/12 00:37:56;;;;;;;8.55;6.70;;;486.40;2380.80;;;;;;5073133;28;20025;-57
2022/06/12 00:40:23;;;;;;;8.15;6.53;;;486.40;2380.80;;;;;;5073190;28;20031;-57
2022/06/12 00:42:53;;;;;;;10.55;5.93;;;486.40;2380.80;;;;;;5073291;28;20021;-57
2022/06/12 00:45:49;;;;;;;10.32;6.00;;;486.40;2380.80;;;;;;5073190;28;20032;-57
2022/06/12 00:48:30;;;;;;;10.50;6.72;;;461.70;2380.80;;;;;;5072998;28;20129;-57
2022/06/12 00:51:08;;;;;;;9.40;5.85;;;461.70;2380.80;;;;;;5073216;28;20024;-58
2022/06/12 00:53:55;;;;;;;10.93;6.25;;;486.40;2380.80;;;;;;5073273;28;20109;-58
2022/06/12 00:56:25;;;;;;;11.30;6.45;;;486.40;2380.80;;;;;;5073086;28;20525;-57
2022/06/12 00:58:55;;;;;;;7.95;5.43;;;486.40;2380.80;;;;;;5072692;28;20048;-58
2022/06/12 01:01:43;;;;;;;8.68;6.60;;;486.50;2380.80;;;;;;5072903;28;20788;-57
2022/06/12 01:06:57;;;;;;;7.75;6.38;;;486.40;2380.80;;;;;;5072621;28;20035;-57
2022/06/12 01:09:28;;;;;;;6.43;5.50;;;486.40;2380.80;;;;;;5072674;28;20467;-57
2022/06/12 01:11:57;;;;;;;7.90;5.35;;;486.40;2380.80;;;;;;5072649;28;20020;-57
2022/06/12 01:14:29;;;;;;;11.10;6.95;;;461.70;2380.80;;;;;;5072474;28;20463;-57
2022/06/12 01:16:56;;;;;;;8.38;6.40;;;461.70;2380.80;;;;;;5072469;28;20112;-57
2022/06/12 01:19:34;;;;;;;11.63;5.57;;;461.70;2380.80;;;;;;5072339;28;20032;-58
2022/06/12 01:22:39;;;;;;;9.20;6.25;;;461.70;2380.80;;;;;;5072607;28;20086;-57
2022/06/12 01:25:26;;;;;;;8.52;5.88;;;461.60;2380.80;;;;;;5072660;28;20040;-57
2022/06/12 01:28:33;;;;;;;8.73;5.38;;;461.60;2380.80;;;;;;5072266;28;20028;-57
2022/06/12 01:31:22;;;;;;;6.78;5.45;;;461.70;2380.80;;;;;;5072481;28;20421;-58
2022/06/12 01:34:10;;;;;;;8.50;5.78;;;461.70;2380.80;;;;;;5071994;28;20100;-57
2022/06/12 01:37:11;;;;;;;8.50;5.43;;;461.70;2380.80;;;;;;5072389;28;20426;-57
2022/06/12 01:39:49;;;;;;;7.40;5.93;;;461.70;2380.80;;;;;;4971474;28;20045;-57
2022/06/12 01:42:51;;;;;;;9.60;5.47;;;461.60;2380.80;;;;;;4971397;28;20059;-57
2022/06/12 01:45:43;;;;;;;6.38;5.05;;;461.60;2380.80;;;;;;4971363;28;20473;-57
2022/06/12 01:48:26;;;;;;;5.65;5.05;;;461.50;2380.80;;;;;;4971289;28;20031;-57
2022/06/12 01:50:56;;;;;;;7.25;4.25;;;461.50;2380.80;;;;;;4971161;28;20057;-57
2022/06/12 01:53:40;;;;;;;6.70;5.72;;;461.50;2380.80;;;;;;4971145;28;20097;-57
2022/06/12 01:56:11;;;;;;;7.20;4.78;;;461.60;2380.80;;;;;;4971202;28;20035;-57
2022/06/12 01:58:45;;;;;;;6.95;5.22;;;461.60;2380.80;;;;;;4970957;28;20509;-58
2022/06/12 02:01:15;;;;;;;5.72;5.03;;;461.60;2380.80;;;;;;4971021;28;20038;-57
2022/06/12 02:03:58;;;;;;;5.30;4.68;;;461.60;2380.80;;;;;;4971071;28;20054;-57
2022/06/12 02:06:58;;;;;;;6.22;4.63;;;461.50;2380.80;;;;;;4970745;28;20027;-57
2022/06/12 02:09:37;;;;;;;5.65;4.35;;;461.60;2380.80;;;;;;4932072;29;20395;-56
2022/06/12 02:15:19;;;;;;;;;;;461.60;2380.80;;;;;;4933094;29;20068;-57
2022/06/12 02:18:06;;;;;;;7.03;5.95;;;461.60;2380.80;;;;;;5023893;28;19905;-57
2022/06/12 02:20:40;;;;;;;7.05;6.25;;;461.60;2380.80;;;;;;5029307;28;20038;-58
2022/06/12 02:23:12;;;;;;;6.32;4.95;;;461.60;2380.80;;;;;;5029304;28;20064;-57
2022/06/12 02:25:43;;;;;;;6.18;5.20;;;461.60;2380.80;;;;;;5029364;28;20037;-57
2022/06/12 02:28:22;;;;;;;7.97;5.30;;;461.50;2380.80;;;;;;5029151;28;20499;-57
2022/06/12 02:30:53;;;;;;;11.25;5.93;;;461.50;2380.80;;;;;;5029082;28;20037;-57
2022/06/12 02:33:30;;;;;;;8.02;5.35;;;461.50;2380.80;;;;;;5029044;28;20029;-57
2022/06/12 02:36:02;;;;;;;6.10;5.10;;;461.50;2380.80;;;;;;5028938;28;20029;-57
2022/06/12 02:38:43;;;;;;;9.32;4.90;;;461.50;2380.80;;;;;;5029213;28;20045;-57
2022/06/12 02:41:31;;;;;;;7.75;5.07;;;461.50;2380.80;;;;;;5029203;28;20535;-57
2022/06/12 02:44:07;;;;;;;8.63;5.45;;;461.40;2380.80;;;;;;5028084;28;20434;-57
2022/06/12 02:46:48;;;;;;;7.15;5.82;;;461.40;2380.80;;;;;;5065042;28;20115;-57
2022/06/12 02:49:15;;;;;;;9.10;5.25;;;461.40;2380.80;;;;;;5070780;28;20020;-57
2022/06/12 02:51:50;;;;;;;10.52;5.85;;;461.40;2380.80;;;;;;5070651;28;20035;-57
2022/06/12 02:54:29;;;;;;;8.80;5.30;;;461.40;2380.80;;;;;;5070886;28;20490;-57
2022/06/12 02:57:19;;;;;;;6.72;5.53;;;461.40;2380.80;;;;;;5070425;28;20028;-57
2022/06/12 02:59:53;;;;;;;7.28;4.90;;;461.40;2380.80;;;;;;5070475;28;20080;-57
2022/06/12 03:02:25;;;;;;;8.38;4.85;;;461.40;2380.80;;;;;;5070765;28;20021;-57
2022/06/12 03:05:06;;;;;;;6.82;5.57;;;461.40;2380.80;;;;;;5070505;28;20078;-57
2022/06/12 03:07:32;;;;;;;7.95;5.25;;;461.40;2380.80;;;;;;5070711;28;20387;-57
2022/06/12 03:10:05;;;;;;;7.20;5.13;;;461.40;2380.80;;;;;;5070659;28;20119;-57
2022/06/12 03:12:32;;;;;;;5.97;4.90;;;461.40;2380.80;;;;;;5070263;28;20047;-57
2022/06/12 03:15:00;;;;;;;8.63;5.00;;;461.50;2380.80;;;;;;5070540;28;20036;-58
2022/06/12 03:17:26;;;;;;;9.02;5.15;;;461.40;2380.80;;;;;;5070437;28;20028;-57
2022/06/12 03:19:55;;;;;;;7.78;4.55;;;461.40;2380.80;;;;;;5070154;28;20032;-57
2022/06/12 03:22:48;;;;;;;13.10;6.35;;;461.50;2380.80;;;;;;5070077;28;20024;-57
2022/06/12 03:25:16;;;;;;;6.57;4.93;;;461.50;2380.80;;;;;;5070382;28;20387;-57
2022/06/12 03:28:15;;;;;;;9.20;5.38;;;461.50;2380.80;;;;;;5069885;28;20042;-57
2022/06/12 03:31:04;;;;;;;7.45;4.88;;;461.50;2380.80;;;;;;4969287;28;20472;-57
2022/06/12 03:33:40;;;;;;;8.23;5.28;;;461.60;2380.80;;;;;;4969502;28;20035;-57
2022/06/12 03:36:11;;;;;;;6.28;5.07;;;461.70;2380.80;;;;;;4953411;28;20401;-57
2022/06/12 03:38:59;;;;;;;6.70;5.05;;;461.70;2380.80;;;;;;4969589;28;20035;-57
2022/06/12 03:41:27;;;;;;;7.30;4.60;;;461.70;2380.80;;;;;;4969245;28;20501;-57
2022/06/12 03:43:55;;;;;;;6.45;4.50;;;461.70;2380.80;;;;;;4969107;28;20133;-57
2022/06/12 03:46:32;;;;;;;6.75;5.40;;;486.40;2380.80;;;;;;4969093;28;20054;-57
2022/06/12 03:49:05;;;;;;;6.45;4.95;;;486.40;2380.80;;;;;;4969192;28;20026;-57
2022/06/12 03:52:03;;;;;;;8.10;5.50;;;486.50;2380.80;;;;;;4969346;28;20355;-57
2022/06/12 03:54:34;;;;;;;9.57;5.65;;;486.50;2380.80;;;;;;4968720;28;20461;-58
2022/06/12 04:00:06;;;;;;;6.78;5.22;;;486.50;2380.80;;;;;;4975433;28;20045;-57
2022/06/12 04:02:35;;;;;;;8.27;5.57;;;486.50;2380.80;;;;;;4975532;28;20023;-58
2022/06/12 04:05:02;;;;;;;6.82;5.43;;;486.60;2380.80;;;;;;4975556;28;20034;-57
2022/06/12 04:07:29;;;;;;;9.10;5.75;;;486.50;2380.80;;;;;;5075989;28;20394;-57
2022/06/12 04:09:58;;;;;;;6.68;5.00;;;486.50;2380.80;;;;;;5076450;28;20028;-57
2022/06/12 04:12:30;;;;;;;6.85;5.00;;;486.50;2380.80;;;;;;5076262;28;20024;-57
2022/06/12 04:14:59;;;;;;;7.03;5.10;;;486.60;2380.80;;;;;;5076545;28;20024;-57
2022/06/12 04:17:25;;;;;;;8.73;5.53;;;486.60;2380.80;;;;;;5075108;28;20375;-57
2022/06/12 04:19:59;;;;;;;8.35;5.43;;;486.70;2380.80;;;;;;5076405;28;20036;-56
2022/06/12 04:22:39;;;;;;;7.85;5.88;;;486.80;2380.80;;;;;;5076159;28;20035;-57
2022/06/12 04:25:16;;;;;;;11.25;5.10;;;486.90;2380.80;;;;;;5076390;28;20036;-56
2022/06/12 04:27:44;;;;;;;7.32;5.15;;;486.90;2380.80;;;;;;5076222;28;20027;-58
2022/06/12 04:30:22;;;;;;;6.50;4.78;;;487.10;2380.80;;;;;;5076380;28;20534;-58
2022/06/12 04:32:49;;;;;;;6.45;5.55;;;487.20;2380.80;;;;;;5076244;28;20070;-58
2022/06/12 04:35:16;;;;;;;6.93;5.38;;;487.20;2380.80;;;;;;5076087;28;20025;-58
2022/06/12 04:37:42;;;;;;;6.18;4.55;;;512.00;2380.80;;;;;;5075968;28;20021;-57
2022/06/12 04:40:27;;;;;;;6.30;5.07;;;512.40;2380.80;;;;;;5076210;28;20413;-57
2022/06/12 04:42:53;;;;;;;7.95;5.13;;;589.40;2432.00;;;;;;5075992;28;20036;-57
2022/06/12 04:45:19;;;;;;;5.65;5.00;;;666.20;2252.80;;;;;;5076193;28;20028;-56
2022/06/12 04:47:45;;;;;;;8.65;4.93;;;717.20;1971.20;;;;;;5075841;28;20085;-57
2022/06/12 04:50:15;;;;;;;7.68;5.25;;;742.70;1868.80;;;;;;5076177;28;20033;-57
2022/06/12 04:52:41;;;;;;;6.25;4.60;;;768.70;1715.20;;;;;;5076052;28;20038;-58
2022/06/12 04:55:07;;;;;;;6.57;5.50;;;794.50;1612.80;;;;;;5076304;28;20054;-58
2022/06/12 04:57:33;;;;;;;6.78;4.45;;;819.60;1561.60;;;;;;5076081;28;20086;-57
2022/06/12 04:59:59;;;;;;;6.55;4.40;;;844.80;1536.00;;;;;;5075940;28;20495;-57
2022/06/12 05:02:25;;;;;;;6.70;5.07;;;845.20;1484.80;;;;;;5075903;28;20170;-57
2022/06/12 05:04:51;;;;;;;5.85;4.93;;;845.70;1459.20;;;;;;5076011;28;20036;-58
2022/06/12 05:07:17;;;;;;;7.05;5.53;;;845.40;1433.60;;;;;;5073820;28;20028;-58
2022/06/12 05:09:44;;;;;;;6.63;5.20;;;845.20;1459.20;;;;;;5072745;28;20029;-56
2022/06/12 05:12:12;;;;;;;5.80;5.13;;;845.40;1433.60;;;;;;5073018;28;20027;-58
2022/06/12 05:14:38;;;;;;;5.15;4.65;;;870.70;1408.00;;;;;;5072836;28;20031;-58
2022/06/12 05:17:10;;;;;;;5.60;5.13;;;870.70;1382.40;;;;;;5072421;28;20082;-58
2022/06/12 05:19:38;;;;;;;5.75;5.20;;;871.30;1356.80;;;;;;5072513;28;20021;-58
2022/06/12 05:22:07;;;;;;;6.32;5.75;;;896.10;1331.20;;;;;;5072670;28;20043;-58
2022/06/12 05:24:34;;;;;;;6.25;5.68;;;921.80;1280.00;;;;;;5072604;28;20037;-58
2022/06/12 05:27:00;;;;;;;5.80;5.30;;;896.20;1280.00;;;;;;5072568;28;20025;-57
2022/06/12 05:29:30;;;;;;;8.40;5.03;;;871.10;1280.00;;;;;;5072275;28;20379;-57
2022/06/12 05:31:57;;;;;;;5.15;4.47;;;921.80;1254.40;;;;;;5072086;28;20028;-57
2022/06/12 05:34:25;;;;;;;5.43;4.78;;;896.70;1280.00;;;;;;5072018;28;20391;-57
2022/06/12 05:36:51;;;;;;;6.25;5.65;;;870.90;1331.20;;;;;;5072100;28;20032;-57
2022/06/12 05:39:17;;;;;;;8.85;5.93;;;819.70;1433.60;;;;;;5072522;28;20021;-57
2022/06/12 05:41:44;;;;;;;6.35;5.47;;;870.50;1356.80;;;;;;5072182;28;20031;-57
2022/06/12 05:44:10;;;;;;;5.70;5.15;;;870.70;1356.80;;;;;;5072125;28;20051;-57
2022/06/12 05:46:36;;;;;;;6.13;5.15;;;871.20;1331.20;;;;;;5072033;28;20016;-57
2022/06/12 05:49:02;;;;;;;6.32;5.35;;;896.90;1280.00;;;;;;5071725;28;20099;-57
2022/06/12 05:51:27;;;;;;;6.20;5.57;;;922.00;1254.40;;;;;;5071988;28;20025;-57
2022/06/12 05:53:53;;;;;;;6.03;5.53;;;896.90;1228.80;;;;;;5071841;28;20021;-57
2022/06/12 05:56:22;;;;;;;7.50;5.75;;;896.90;1228.80;;;;;;5072220;28;20017;-57
2022/06/12 05:58:48;;;;;;;5.85;5.35;;;947.40;1203.20;;;;;;5071763;28;20048;-57
2022/06/12 06:01:17;;;;;;;6.57;5.97;;;947.70;1203.20;;;;;;5071502;28;20024;-58
2022/06/12 06:03:43;;;;;;;6.35;5.85;;;947.20;1203.20;;;;;;5071409;28;20036;-57
2022/06/12 06:06:13;;;;;;;5.10;4.57;;;922.20;1228.80;;;;;;5071937;28;20028;-58
2022/06/12 06:08:39;;;;;;;7.57;6.80;;;947.70;1177.60;;;;;;5071844;28;20020;-57
2022/06/12 06:11:06;;;;;;;6.18;5.68;;;973.20;1152.00;;;;;;5071718;28;20364;-57
2022/06/12 06:13:32;;;;;;;7.28;6.40;;;973.50;1152.00;;;;;;5071609;28;20028;-57
2022/06/12 06:15:58;;;;;;;6.80;6.20;;;973.70;1126.40;;;;;;5071610;28;20043;-57
2022/06/12 06:18:24;;;;;;;7.10;6.45;;;973.70;1126.40;;;;;;5070544;28;20024;-57
2022/06/12 06:20:51;;;;;;;7.63;6.93;;;998.60;1126.40;;;;;;5071160;28;20028;-57
2022/06/12 06:23:17;;;;;;;7.35;6.75;;;998.80;1126.40;;;;;;5071199;28;20525;-58
2022/06/12 06:25:43;;;;;;;9.30;8.45;;;1024.10;1075.20;;;;;;5071055;28;20147;-57
2022/06/12 06:28:11;;;;;;;7.85;7.07;;;1024.30;1075.20;;;;;;5071117;28;20025;-58
2022/06/12 06:30:37;;;;;;;8.63;7.93;;;999.30;1075.20;;;;;;5071223;28;20028;-58
2022/06/12 06:33:03;;;;;;;7.68;7.07;;;1024.40;1075.20;;;;;;5070902;28;20025;-58
2022/06/12 06:35:29;;;;;;;7.88;7.28;;;1024.10;1075.20;;;;;;5071320;28;20028;-57
2022/06/12 06:37:55;;;;;;;7.95;7.35;;;1049.90;1075.20;;;;;;5070757;28;20027;-58
2022/06/12 06:40:26;;;;;;;7.13;6.63;;;1050.10;1049.60;;;;;;5071345;28;20035;-57
2022/06/12 06:42:52;;;;;;;10.82;8.32;;;1024.60;1049.60;;;;;;5070828;28;20021;-58
2022/06/12 06:48:04;;;;;;;9.38;8.57;;;1075.40;1024.00;;;;;;5070688;28;20020;-58
2022/06/12 06:50:32;;;;;;;9.20;8.50;;;1076.10;998.40;;;;;;5070861;28;20479;-57
2022/06/12 06:52:59;;;;;;;8.60;7.90;;;;;;;;;;5070733;28;20029;-57
2022/06/12 06:55:26;;;;;;;8.75;8.00;;;1101.00;1049.60;;;;;;5070734;28;20044;-57
2022/06/12 06:57:52;;;;;;;8.43;7.82;;;1101.10;1024.00;;;;;;5070709;28;20035;-58
2022/06/12 07:00:22;;;;;;;9.57;8.98;;;1101.70;998.40;;;;;;5070651;28;20032;-58
2022/06/12 07:02:48;;;;;;;8.95;8.25;;;1100.80;998.40;;;;;;5070581;28;20540;-58
2022/06/12 07:05:14;;;;;;;10.00;9.05;;;1101.00;1024.00;;;;;;5070529;28;20036;-58
2022/06/12 07:07:40;;;;;;;10.00;9.07;;;1101.60;998.40;;;;;;5070520;28;20028;-58
2022/06/12 07:10:09;;;;;;;8.80;8.00;;;1101.70;972.80;;;;;;5070628;28;20112;-57
2022/06/12 07:12:34;;;;;;;8.13;7.53;;;1127.00;972.80;;;;;;5070290;28;20402;-59
2022/06/12 07:15:00;;;;;;;8.90;8.20;;;1100.90;998.40;;;;;;5070426;28;20039;-58
2022/06/12 07:17:26;;;;;;;9.00;8.23;;;1101.00;998.40;;;;;;5070323;28;20031;-58
2022/06/12 07:19:52;;;;;;;9.20;8.60;;;1076.10;972.80;;;;;;5070436;28;20020;-58
2022/06/12 07:22:17;;;;;;;11.00;10.07;;;1076.10;972.80;;;;;;5070427;28;20356;-58
2022/06/12 07:24:43;;;;;;;8.52;7.72;;;1101.00;998.40;;;;;;5070063;28;20043;-58
2022/06/12 07:27:09;;;;;;;9.60;8.60;;;1101.00;998.40;;;;;;5070197;28;20042;-59
2022/06/12 07:29:35;;;;;;;8.85;7.97;;;1101.30;972.80;;;;;;5070040;28;20029;-58
2022/06/12 07:32:01;;;;;;;9.32;8.63;;;1100.90;998.40;;;;;;5070016;28;20111;-58
2022/06/12 07:34:27;;;;;;;10.23;9.32;;;1076.10;972.80;;;;;;5070384;28;20120;-58
2022/06/12 07:36:54;;;;;;;11.32;8.77;;;1101.70;998.40;;;;;;5070025;28;20463;-58
2022/06/12 07:39:24;;;;;;;8.93;8.13;;;1101.00;998.40;;;;;;5069969;28;20033;-58
2022/06/12 07:41:52;;;;;;;8.35;7.75;;;1050.40;998.40;;;;;;5070166;28;20043;-58
2022/06/12 07:44:21;;;;;;;8.73;8.02;;;1050.50;1024.00;;;;;;5069948;28;20036;-57
2022/06/12 07:46:49;;;;;;;8.85;8.15;;;1049.80;1049.60;;;;;;5069963;28;20020;-59
2022/06/12 07:49:17;;;;;;;11.65;8.48;;;1049.60;1075.20;;;;;;5069738;28;20017;-57
2022/06/12 07:51:42;;;;;;;9.82;9.00;;;1050.00;1049.60;;;;;;5070023;28;20056;-58
2022/06/12 07:54:08;;;;;;;8.77;8.18;;;1049.90;1049.60;;;;;;5069966;28;20059;-57
2022/06/12 07:56:34;;;;;;;7.65;6.95;;;1049.70;1049.60;;;;;;5070025;28;20447;-57
2022/06/12 07:59:00;;;;;;;9.60;8.80;;;1050.00;1049.60;;;;;;5069672;28;20414;-58
2022/06/12 08:01:28;;;;;;;8.98;8.23;;;1050.50;1024.00;;;;;;5069754;28;20039;-59
2022/06/12 08:03:54;;;;;;;8.50;7.68;;;1049.70;1049.60;;;;;;5069638;28;20033;-58
2022/06/12 08:06:21;;;;;;;9.73;8.90;;;1024.60;1049.60;;;;;;5069955;28;20069;-58
2022/06/12 08:08:46;;;;;;;8.82;8.02;;;1024.20;1075.20;;;;;;5069689;28;20036;-55
2022/06/12 08:11:13;;;;;;;7.93;7.32;;;999.10;1075.20;;;;;;5069605;28;20024;-56
2022/06/12 08:13:39;;;;;;;8.60;7.90;;;973.70;1126.40;;;;;;5069765;28;20054;-63
2022/06/12 08:16:05;;;;;;;7.30;6.57;;;896.80;1203.20;;;;;;5069649;28;20114;-59
2022/06/12 08:18:31;;;;;;;6.50;5.85;;;870.60;1305.60;;;;;;5069861;28;20028;-61
2022/06/12 08:21:06;;;;;;;6.30;5.70;;;819.60;1382.40;;;;;;5069595;28;20020;-56
2022/06/12 08:23:40;;;;;;;7.65;6.30;;;794.00;1459.20;;;;;;5069451;28;20025;-56
2022/06/12 08:26:11;;;;;;;7.95;6.38;;;768.90;1459.20;;;;;;5066820;28;20487;-57
2022/06/12 08:28:49;;;;;;;7.45;5.15;;;768.30;1510.40;;;;;;5069087;28;20027;-59
2022/06/12 08:31:21;;;;;;;6.22;5.63;;;768.10;1536.00;;;;;;5068026;28;20546;-62
2022/06/12 08:33:51;;;;;;;5.95;4.60;;;742.90;1561.60;;;;;;5066565;28;20415;-56
2022/06/12 08:36:18;;;;;;;6.20;5.32;;;742.80;1561.60;;;;;;5069151;28;20025;-57
2022/06/12 08:38:47;;;;;;;5.63;5.03;;;742.80;1587.20;;;;;;5063049;28;20082;-59
2022/06/12 08:41:38;;;;;;;5.53;4.50;;;742.70;1612.80;;;;;;5067959;28;20429;-61
2022/06/12 08:44:30;;;;;;;5.97;5.38;;;743.00;1587.20;;;;;;5070452;28;20515;-61
2022/06/12 08:47:11;;;;;;;5.75;5.15;;;742.90;1612.80;;;;;;5066586;28;20496;-61
2022/06/12 08:49:43;;;;;;;6.35;5.55;;;742.70;1587.20;;;;;;5071795;28;20413;-59
2022/06/12 08:52:24;;;;;;;5.47;4.85;;;742.40;1638.40;;;;;;5071903;28;20370;-59
2022/06/12 08:55:18;;;;;;;5.20;4.70;;;742.40;1638.40;;;;;;5070293;28;20049;-58
2022/06/12 08:58:08;;;;;;;6.95;4.88;;;717.60;1664.00;;;;;;5070120;28;20081;-63
2022/06/12 09:00:36;;;;;;;6.00;5.40;;;717.40;1664.00;;;;;;5067504;28;20457;-62
2022/06/12 09:03:11;;;;;;;5.90;5.30;;;717.50;1664.00;;;;;;5071254;28;20086;-57
2022/06/12 09:06:10;;;;;;;6.85;6.15;;;717.50;1664.00;;;;;;5069505;28;20028;-58
2022/06/12 09:08:47;;;;;;;6.43;5.82;;;717.70;1664.00;;;;;;5070671;28;20024;-61
2022/06/12 09:11:25;;;;;;;6.75;5.05;;;717.60;1664.00;;;;;;5067180;28;20107;-61
2022/06/12 09:13:58;;;;;;;5.20;4.70;;;742.60;1664.00;;;;;;5068725;28;20038;-62
2022/06/12 09:16:27;;;;;;;7.80;5.50;;;742.40;1664.00;;;;;;5067033;28;20120;-57
2022/06/12 09:19:09;;;;;;;6.28;5.25;;;717.70;1664.00;;;;;;5068420;28;20494;-62
2022/06/12 09:22:02;;;;;;;5.28;4.75;;;717.20;1664.00;;;;;;5069485;28;20025;-57
2022/06/12 09:24:42;;;;;;;5.47;4.65;;;717.40;1664.00;;;;;;5066759;28;20041;-57
2022/06/12 09:27:28;;;;;;;8.60;4.38;;;717.30;1664.00;;;;;;5067564;28;20037;-57
2022/06/12 09:30:12;;;;;;;8.70;5.85;;;717.00;1689.60;;;;;;5055167;28;20033;-58
2022/06/12 09:32:58;;;;;;;5.47;4.93;;;717.40;1689.60;;;;;;5070891;28;20035;-59
2022/06/12 09:35:49;;;;;;;7.97;5.95;;;717.50;1689.60;;;;;;5070654;28;20100;-60
2022/06/12 09:38:37;;;;;;;7.95;7.15;;;717.40;1689.60;;;;;;5070275;28;20032;-58
2022/06/12 09:41:09;;;;;;;7.57;5.30;;;717.20;1689.60;;;;;;5070636;28;20075;-57
2022/06/12 09:43:55;;;;;;;7.72;5.22;;;717.50;1740.80;;;;;;5070573;28;20067;-59
2022/06/12 09:46:58;;;;;;;5.90;5.30;;;717.70;1689.60;;;;;;5070509;28;20082;-58
2022/06/12 09:49:36;;;;;;;7.60;5.22;;;742.50;1689.60;;;;;;5069761;28;20066;-57
2022/06/12 09:52:16;;;;;;;6.15;5.50;;;742.80;1689.60;;;;;;5068703;28;20548;-59
2022/06/12 09:54:46;;;;;;;6.85;5.70;;;743.30;1638.40;;;;;;5069180;28;20043;-62
2022/06/12 09:57:18;;;;;;;6.38;5.78;;;742.80;1638.40;;;;;;5070476;28;20020;-60
2022/06/12 09:59:52;;;;;;;7.22;6.40;;;742.50;1689.60;;;;;;5069771;28;20060;-58
2022/06/12 10:02:25;;;;;;;6.07;5.47;;;717.20;1689.60;;;;;;5070504;28;20027;-57
2022/06/12 10:04:56;;;;;;;;;;;717.10;1715.20;;;;;;5068832;28;20453;-57
2022/06/12 10:07:32;;;;;;;8.48;5.45;;;716.80;1740.80;;;;;;5068903;28;20453;-57
2022/06/12 10:10:05;;;;;;;7.53;5.72;;;716.80;1740.80;;;;;;5069084;28;20025;-56
2022/06/12 10:12:39;;;;;;;7.22;5.78;;;716.80;1740.80;;;;;;5051997;28;20029;-58
2022/06/12 10:15:26;;;;;;;9.18;6.43;;;692.10;1740.80;;;;;;5069738;28;20029;-57
2022/06/12 10:18:16;;;;;;;6.63;5.15;;;691.80;1740.80;;;;;;5069166;28;20028;-58
2022/06/12 10:20:51;;;;;;;7.60;5.50;;;691.90;1792.00;;;;;;5069903;28;20085;-61
2022/06/12 10:23:17;;;;;;;7.35;5.00;;;691.90;1792.00;;;;;;5069765;28;20029;-58
2022/06/12 10:25:50;;;;;;;8.10;5.90;;;691.80;1792.00;;;;;;5069116;28;20071;-59
2022/06/12 10:28:15;;;;;;;6.82;6.20;;;691.80;1792.00;;;;;;5069532;28;20058;-61
2022/06/12 10:30:42;;;;;;;6.10;5.30;;;691.70;1817.60;;;;;;5068079;28;20220;-58
2022/06/12 10:33:25;;;;;;;7.80;5.90;;;692.00;1792.00;;;;;;5069448;28;20025;-58
2022/06/12 10:36:03;;;;;;;5.25;4.75;;;716.80;1817.60;;;;;;5069716;28;20055;-56
2022/06/12 10:38:37;;;;;;;7.97;5.65;;;716.90;1792.00;;;;;;5068844;28;20174;-58
2022/06/12 10:41:06;;;;;;;5.57;4.90;;;717.30;1766.40;;;;;;5069654;28;20025;-57
2022/06/12 10:43:38;;;;;;;13.20;6.20;;;717.20;1766.40;;;;;;5068718;28;20032;-59
2022/06/12 10:46:18;;;;;;;8.68;6.28;;;717.70;1689.60;;;;;;5069207;28;20103;-57
2022/06/12 10:49:01;;;;;;;7.00;5.18;;;742.40;1740.80;;;;;;5069121;28;20032;-59
2022/06/12 10:51:34;;;;;;;8.10;4.93;;;742.40;1740.80;;;;;;5069277;28;20039;-57
2022/06/12 10:54:09;;;;;;;7.57;5.68;;;717.70;1715.20;;;;;;5069493;28;20055;-62
2022/06/12 10:56:41;;;;;;;7.20;5.30;;;717.70;1715.20;;;;;;5068633;28;20028;-57
2022/06/12 10:59:13;;;;;;;6.53;5.68;;;717.20;1715.20;;;;;;5069149;28;20474;-59
2022/06/12 11:01:44;;;;;;;6.43;5.03;;;717.00;1740.80;;;;;;5069218;28;20047;-56
2022/06/12 11:04:38;;;;;;;6.18;5.38;;;717.20;1740.80;;;;;;5068875;28;20135;-57
2022/06/12 11:07:35;;;;;;;5.82;4.80;;;717.40;1715.20;;;;;;5068938;28;20035;-61
2022/06/12 11:10:07;;;;;;;6.43;5.82;;;717.20;1740.80;;;;;;5067645;28;20068;-57
2022/06/12 11:12:41;;;;;;;7.68;5.95;;;717.50;1740.80;;;;;;5068757;28;20028;-58
2022/06/12 11:15:20;;;;;;;6.68;6.00;;;717.10;1740.80;;;;;;5068691;28;20040;-57
2022/06/12 11:17:49;;;;;;;7.70;5.05;;;717.00;1766.40;;;;;;5068520;28;20463;-56
2022/06/12 11:20:34;;;;;;;8.00;5.53;;;717.00;1766.40;;;;;;5068604;28;20029;-57
2022/06/12 11:23:18;;;;;;;6.97;5.40;;;716.90;1740.80;;;;;;5068416;28;20032;-57
2022/06/12 11:25:56;;;;;;;6.60;5.53;;;692.10;1740.80;;;;;;5068554;28;20393;-61
2022/06/12 11:28:44;;;;;;;6.55;5.10;;;692.00;1740.80;;;;;;5068752;28;20113;-59
2022/06/12 11:31:55;;;;;;;7.05;6.20;;;691.70;1766.40;;;;;;5068640;28;20040;-56
2022/06/12 11:34:35;;;;;;;9.85;5.93;;;692.10;1740.80;;;;;;4967755;28;20749;-58
2022/06/12 11:37:19;;;;;;;6.22;5.60;;;716.90;1766.40;;;;;;4967215;28;20572;-57
2022/06/12 11:39:55;;;;;;;5.47;4.95;;;716.90;1766.40;;;;;;4967128;28;20034;-57
2022/06/12 11:42:39;;;;;;;6.32;5.30;;;691.90;1766.40;;;;;;4967498;28;20043;-58
2022/06/12 11:45:05;;;;;;;7.10;4.88;;;692.10;1766.40;;;;;;4967176;28;20042;-56
2022/06/12 11:47:54;;;;;;;5.72;5.13;;;691.80;1766.40;;;;;;4967423;28;20022;-57
2022/06/12 11:50:29;;;;;;;6.55;5.57;;;691.70;1792.00;;;;;;4967461;28;20378;-57
2022/06/12 11:53:14;;;;;;;6.10;5.07;;;691.80;1792.00;;;;;;4967091;28;20039;-57
2022/06/12 11:55:46;;;;;;;7.90;5.70;;;716.80;1843.20;;;;;;4967467;28;20038;-57
2022/06/12 11:58:26;;;;;;;7.03;5.88;;;717.00;1766.40;;;;;;4966857;28;20067;-57
2022/06/12 12:01:02;;;;;;;8.15;4.97;;;716.80;1766.40;;;;;;4966820;28;20470;-58
2022/06/12 12:03:27;;;;;;;8.98;4.95;;;691.80;1792.00;;;;;;4967165;28;20031;-57
2022/06/12 12:06:20;;;;;;;6.60;5.10;;;691.80;1817.60;;;;;;5049439;28;20045;-59
2022/06/12 12:09:14;;;;;;;7.28;5.28;;;691.80;1792.00;;;;;;5068231;28;20025;-57
2022/06/12 12:11:47;;;;;;;8.10;5.82;;;691.80;1792.00;;;;;;5068502;28;20406;-56
2022/06/12 12:14:20;;;;;;;6.40;5.45;;;692.10;1766.40;;;;;;5067752;28;20081;-57
2022/06/12 12:17:00;;;;;;;5.57;5.00;;;717.10;1766.40;;;;;;5069645;28;20027;-56
2022/06/12 12:19:51;;;;;;;7.53;5.57;;;717.00;1792.00;;;;;;5071964;28;20028;-56
2022/06/12 12:22:48;;;;;;;5.60;5.00;;;717.20;1766.40;;;;;;5072008;28;20029;-57
2022/06/12 12:25:21;;;;;;;12.30;5.00;;;717.50;1715.20;;;;;;5072368;28;20028;-57
2022/06/12 12:27:52;;;;;;;6.35;5.65;;;717.70;1689.60;;;;;;5071522;28;20029;-57
2022/06/12 12:30:24;;;;;;;6.28;5.40;;;717.70;1715.20;;;;;;5072094;28;20158;-57
2022/06/12 12:32:52;;;;;;;6.07;5.30;;;717.70;1740.80;;;;;;5071271;28;20032;-57
2022/06/12 12:43:45;;;;;;;6.70;5.35;;;692.10;1792.00;;;;;;5070708;28;20054;-56
2022/06/12 12:46:11;;;;;;;6.85;5.43;;;692.10;1792.00;;;;;;5071474;28;20032;-56
2022/06/12 12:48:44;;;;;;;12.57;5.55;;;717.10;1817.60;;;;;;5071212;28;20027;-57
2022/06/12 12:51:10;;;;;;;7.30;5.22;;;717.20;1792.00;;;;;;5071572;28;20453;-56
2022/06/12 12:53:40;;;;;;;6.35;5.35;;;717.10;1817.60;;;;;;5070883;28;20094;-58
2022/06/12 12:56:07;;;;;;;6.38;5.22;;;716.90;1817.60;;;;;;5071556;28;20050;-56
2022/06/12 12:58:56;;;;;;;5.65;5.13;;;716.90;1817.60;;;;;;5071169;28;20046;-59
2022/06/12 13:01:24;;;;;;;7.10;5.25;;;717.30;1792.00;;;;;;5071349;28;20033;-57
2022/06/12 13:03:55;;;;;;;6.13;5.25;;;717.60;1766.40;;;;;;5071254;28;20119;-55
2022/06/12 13:06:40;;;;;;;6.50;5.15;;;717.70;1766.40;;;;;;5070820;28;20585;-57
2022/06/12 13:09:08;;;;;;;6.00;5.28;;;717.70;1740.80;;;;;;5071264;28;20039;-58